createdAt,value
2018-11-21T00:02:08.698Z,34.37
2018-11-21T00:04:56.397Z,30.70
2018-11-21T00:07:37.677Z,36.10
2018-11-21T00:10:25.983Z,33.03
2018-11-21T00:13:06.904Z,31.87
2018-11-21T00:15:55.241Z,35.97
2018-11-21T00:18:36.517Z,34.63
2018-11-21T00:21:24.849Z,34.80
2018-11-21T00:24:06.497Z,34.47
2018-11-21T00:26:54.773Z,33.93
2018-11-21T00:29:35.849Z,35.77
2018-11-21T00:32:25.407Z,32.77
2018-11-21T00:35:12.678Z,32.93
2018-11-21T00:37:54.064Z,35.90
2018-11-21T00:41:01.955Z,32.33
2018-11-21T00:44:02.490Z,34.60
2018-11-21T00:51:02.450Z,33.23
2018-11-21T00:57:24.533Z,33.57
2018-11-21T01:12:37.268Z,30.77
2018-11-21T01:26:04.811Z,33.90
2018-11-21T01:32:00.954Z,32.37
2018-11-21T01:34:49.446Z,32.63
2018-11-21T01:37:30.888Z,33.33
2018-11-21T01:40:19.198Z,34.47
2018-11-21T01:43:00.686Z,33.43
2018-11-21T01:45:51.638Z,34.23
2018-11-21T01:48:33.229Z,34.47
2018-11-21T01:51:21.548Z,34.37
2018-11-21T01:54:02.571Z,34.40
2018-11-21T01:56:52.207Z,33.07
2018-11-21T01:59:33.171Z,33.23
2018-11-21T02:09:43.337Z,32.60
2018-11-21T02:12:50.985Z,32.87
2018-11-21T02:15:38.824Z,33.60
2018-11-21T02:19:02.255Z,34.10
2018-11-21T02:31:12.991Z,37.23
2018-11-21T02:47:00.156Z,33.67
2018-11-21T02:52:50.251Z,35.13
2018-11-21T02:56:12.165Z,34.27
2018-11-21T02:58:56.450Z,33.43
2018-11-21T03:01:45.482Z,34.67
2018-11-21T03:04:33.334Z,31.73
2018-11-21T03:10:23.118Z,35.47
2018-11-21T03:13:11.399Z,33.13
2018-11-21T03:15:53.084Z,34.47
2018-11-21T03:22:08.912Z,32.47
2018-11-21T03:47:44.713Z,37.03
2018-11-21T03:56:56.559Z,35.10
2018-11-21T03:59:38.117Z,33.80
2018-11-21T04:02:26.702Z,36.13
2018-11-21T04:05:08.255Z,35.43
2018-11-21T04:07:56.561Z,37.63
2018-11-21T04:10:38.201Z,37.17
2018-11-21T04:13:26.643Z,35.73
2018-11-21T04:16:07.879Z,32.43
2018-11-21T04:19:31.422Z,36.67
2018-11-21T04:25:15.539Z,36.97
2018-11-21T04:31:07.279Z,35.30
2018-11-21T04:37:13.771Z,36.33
2018-11-21T04:44:21.865Z,36.53
2018-11-21T04:47:15.522Z,37.03
2018-11-21T04:50:05.660Z,36.73
2018-11-21T05:02:48.377Z,37.90
2018-11-21T05:05:24.374Z,39.77
2018-11-21T05:08:39.036Z,40.60
2018-11-21T05:22:10.705Z,40.40
2018-11-21T05:25:01.670Z,41.27
2018-11-21T05:27:50.214Z,42.67
2018-11-21T05:30:31.240Z,42.07
2018-11-21T05:33:19.883Z,44.90
2018-11-21T05:36:02.604Z,44.27
2018-11-21T05:38:51.026Z,41.13
2018-11-21T05:41:22.871Z,43.57
2018-11-21T05:43:52.254Z,45.87
2018-11-21T05:46:23.856Z,42.57
2018-11-21T05:48:53.163Z,45.77
2018-11-21T05:51:27.873Z,41.70
2018-11-21T05:54:37.995Z,42.77
2018-11-21T05:57:10.199Z,39.77
2018-11-21T05:59:50.930Z,42.37
2018-11-21T06:02:23.149Z,43.63
2018-11-21T06:04:55.143Z,42.73
2018-11-21T06:07:27.681Z,41.13
2018-11-21T06:09:59.323Z,41.43
2018-11-21T06:12:28.509Z,38.80
2018-11-21T06:14:57.833Z,41.40
2018-11-21T06:17:26.985Z,39.30
2018-11-21T06:19:56.255Z,43.00
2018-11-21T06:22:30.653Z,40.23
2018-11-21T06:25:00.931Z,40.87
2018-11-21T06:31:01.819Z,41.33
2018-11-21T06:33:32.396Z,38.13
2018-11-21T06:36:01.606Z,43.77
2018-11-21T06:38:39.348Z,40.53
2018-11-21T06:41:10.915Z,42.10
2018-11-21T06:43:43.879Z,42.20
2018-11-21T06:46:13.194Z,38.83
2018-11-21T06:48:42.335Z,41.23
2018-11-21T06:51:11.658Z,39.60
2018-11-21T06:53:40.936Z,40.97
2018-11-21T06:56:10.296Z,39.70
2018-11-21T06:58:39.478Z,42.80
2018-11-21T07:01:08.750Z,39.23
2018-11-21T07:03:37.894Z,38.57
2018-11-21T07:06:07.234Z,37.17
2018-11-21T07:08:36.514Z,42.77
2018-11-21T07:11:06.123Z,39.80
2018-11-21T07:13:35.318Z,39.37
2018-11-21T07:16:04.558Z,37.77
2018-11-21T07:18:33.758Z,38.50
2018-11-21T07:21:02.973Z,38.97
2018-11-21T07:23:32.198Z,42.30
2018-11-21T07:26:01.676Z,39.83
2018-11-21T07:28:30.936Z,42.93
2018-11-21T07:31:02.308Z,40.40
2018-11-21T07:33:31.496Z,38.40
2018-11-21T07:36:00.653Z,42.13
2018-11-21T07:38:30.209Z,40.83
2018-11-21T07:40:59.512Z,41.57
2018-11-21T07:43:28.696Z,41.73
2018-11-21T07:45:57.842Z,45.53
2018-11-21T07:48:30.075Z,43.73
2018-11-21T07:51:02.436Z,45.10
2018-11-21T07:53:28.638Z,40.83
2018-11-21T07:55:57.786Z,47.07
2018-11-21T07:58:27.576Z,41.60
2018-11-21T08:01:20.404Z,45.60
2018-11-21T08:03:54.894Z,46.40
2018-11-21T08:06:42.103Z,44.83
2018-11-21T08:09:30.595Z,42.57
2018-11-21T08:13:21.903Z,48.27
2018-11-21T08:16:21.985Z,47.20
2018-11-21T08:19:29.022Z,53.37
2018-11-21T08:22:29.057Z,52.00
2018-11-21T08:25:30.924Z,47.40
2018-11-21T08:28:21.131Z,47.90
2018-11-21T08:31:02.063Z,47.13
2018-11-21T08:37:26.471Z,48.43
2018-11-21T08:40:07.149Z,42.70
2018-11-21T08:42:54.241Z,47.87
2018-11-21T08:45:38.929Z,51.30
2018-11-21T08:48:26.168Z,50.60
2018-11-21T08:51:07.046Z,50.63
2018-11-21T08:53:54.161Z,48.73
2018-11-21T08:56:36.164Z,45.90
2018-11-21T09:00:01.486Z,47.37
2018-11-21T09:02:41.847Z,48.93
2018-11-21T09:05:29.541Z,45.43
2018-11-21T09:08:09.668Z,48.00
2018-11-21T09:10:56.786Z,48.83
2018-11-21T09:13:37.317Z,51.70
2018-11-21T09:16:24.662Z,48.73
2018-11-21T09:19:05.654Z,47.07
2018-11-21T09:25:35.125Z,49.17
2018-11-21T09:28:22.264Z,46.57
2018-11-21T09:31:02.487Z,50.50
2018-11-21T09:33:49.668Z,45.07
2018-11-21T09:36:30.287Z,46.10
2018-11-21T09:40:14.895Z,45.17
2018-11-21T09:42:57.521Z,47.33
2018-11-21T09:45:37.879Z,47.97
2018-11-21T09:48:05.851Z,45.87
2018-11-21T09:50:53.183Z,46.27
2018-11-21T09:53:33.727Z,45.03
2018-11-21T09:56:21.255Z,44.30
2018-11-21T09:59:02.069Z,49.63
2018-11-21T10:02:28.343Z,46.10
2018-11-21T10:05:09.179Z,44.20
2018-11-21T10:08:03.191Z,45.13
2018-11-21T10:10:43.737Z,44.50
2018-11-21T10:13:31.649Z,49.57
2018-11-21T10:16:12.236Z,41.67
2018-11-21T10:19:00.797Z,46.37
2018-11-21T10:21:41.891Z,43.37
2018-11-21T10:24:29.288Z,43.43
2018-11-21T10:27:09.566Z,44.03
2018-11-21T10:29:56.923Z,47.10
2018-11-21T10:32:37.687Z,45.70
2018-11-21T10:35:25.064Z,42.77
2018-11-21T10:38:05.165Z,45.93
2018-11-21T10:40:52.339Z,47.40
2018-11-21T10:43:33.605Z,41.80
2018-11-21T10:46:20.742Z,45.00
2018-11-21T10:49:08.113Z,45.03
2018-11-21T10:51:47.968Z,47.27
2018-11-21T10:54:35.489Z,44.73
2018-11-21T10:57:16.256Z,50.50
2018-11-21T11:00:05.298Z,43.83
2018-11-21T11:06:16.640Z,45.07
2018-11-21T11:09:45.457Z,47.57
2018-11-21T11:12:52.177Z,42.67
2018-11-21T11:15:58.869Z,44.60
2018-11-21T11:18:59.010Z,46.43
2018-11-21T11:22:05.738Z,48.07
2018-11-21T11:25:06.100Z,47.63
2018-11-21T11:28:14.785Z,47.93
2018-11-21T11:31:04.020Z,48.27
2018-11-21T11:34:11.955Z,42.37
2018-11-21T11:37:13.727Z,42.67
2018-11-21T11:40:20.608Z,47.93
2018-11-21T11:43:20.641Z,51.00
2018-11-21T11:46:27.554Z,48.83
2018-11-21T11:49:27.628Z,50.70
2018-11-21T11:52:34.332Z,47.40
2018-11-21T11:55:41.436Z,46.13
2018-11-21T11:58:48.238Z,49.20
2018-11-21T12:01:48.658Z,46.23
2018-11-21T12:04:49.114Z,47.17
2018-11-21T12:07:56.194Z,49.03
2018-11-21T12:10:56.021Z,46.17
2018-11-21T12:14:02.910Z,48.07
2018-11-21T12:17:04.237Z,45.40
2018-11-21T12:20:06.461Z,47.93
2018-11-21T12:23:06.741Z,46.10
2018-11-21T12:26:13.457Z,49.77
2018-11-21T12:29:09.834Z,46.13
2018-11-21T12:32:10.427Z,47.63
2018-11-21T12:35:11.144Z,42.70
2018-11-21T12:38:18.843Z,47.73
2018-11-21T12:41:17.620Z,45.87
2018-11-21T12:44:24.769Z,46.00
2018-11-21T12:47:26.265Z,44.03
2018-11-21T12:50:33.216Z,49.20
2018-11-21T12:53:23.623Z,41.70
2018-11-21T12:56:30.689Z,47.43
2018-11-21T12:59:26.213Z,45.07
2018-11-21T13:02:33.100Z,43.60
2018-11-21T13:05:38.453Z,44.43
2018-11-21T13:08:45.734Z,47.27
2018-11-21T13:11:46.059Z,42.77
2018-11-21T13:14:52.940Z,45.43
2018-11-21T13:17:53.054Z,43.57
2018-11-21T13:20:59.860Z,44.53
2018-11-21T13:23:52.559Z,46.73
2018-11-21T13:26:59.500Z,47.43
2018-11-21T13:30:06.267Z,41.10
2018-11-21T13:33:13.218Z,44.90
2018-11-21T13:36:20.117Z,46.00
2018-11-21T13:39:46.560Z,42.93
2018-11-21T13:42:53.539Z,41.97
2018-11-21T13:46:00.440Z,44.00
2018-11-21T13:49:00.707Z,44.87
2018-11-21T13:51:55.187Z,43.53
2018-11-21T13:54:55.720Z,48.10
2018-11-21T13:57:36.518Z,46.90
2018-11-21T14:00:23.674Z,46.20
2018-11-21T14:03:04.753Z,44.60
2018-11-21T14:05:52.332Z,48.70
2018-11-21T14:08:33.533Z,45.97
2018-11-21T14:12:11.649Z,42.97
2018-11-21T14:14:08.748Z,45.03
2018-11-21T14:17:06.345Z,47.27
2018-11-21T14:20:14.158Z,45.53
2018-11-21T14:23:11.753Z,44.90
2018-11-21T14:25:56.772Z,44.97
2018-11-21T14:28:33.413Z,47.20
2018-11-21T14:31:25.178Z,47.43
2018-11-21T14:34:08.348Z,45.83
2018-11-21T14:37:00.995Z,48.50
2018-11-21T14:39:45.138Z,46.67
2018-11-21T14:50:30.855Z,44.63
2018-11-21T15:02:16.728Z,42.77
2018-11-21T15:05:06.624Z,44.17
2018-11-21T15:07:48.497Z,46.10
2018-11-21T15:10:55.455Z,47.70
2018-11-21T15:13:35.901Z,44.23
2018-11-21T15:16:23.515Z,47.20
2018-11-21T15:19:04.391Z,44.17
2018-11-21T15:21:51.501Z,46.80
2018-11-21T15:27:46.627Z,46.83
2018-11-21T15:30:35.788Z,45.00
2018-11-21T15:33:16.089Z,45.60
2018-11-21T15:36:03.324Z,47.60
2018-11-21T15:38:43.975Z,44.17
2018-11-21T15:41:31.353Z,46.60
2018-11-21T15:44:12.391Z,45.07
2018-11-21T15:46:59.522Z,42.30
2018-11-21T15:49:40.534Z,44.47
2018-11-21T15:52:27.676Z,44.67
2018-11-21T15:55:10.652Z,43.43
2018-11-21T15:57:57.843Z,41.40
2018-11-21T16:00:38.854Z,43.73
2018-11-21T16:03:26.026Z,45.67
2018-11-21T16:06:06.730Z,44.20
2018-11-21T16:08:53.862Z,41.67
2018-11-21T16:11:33.920Z,42.33
2018-11-21T16:14:21.043Z,47.00
2018-11-21T16:17:01.551Z,41.70
2018-11-21T16:19:49.540Z,40.73
2018-11-21T16:22:29.650Z,40.93
2018-11-21T16:25:18.227Z,41.83
2018-11-21T16:27:59.365Z,45.23
2018-11-21T16:30:46.815Z,40.43
2018-11-21T16:33:27.603Z,42.67
2018-11-21T16:36:14.985Z,45.60
2018-11-21T16:38:55.413Z,48.43
2018-11-21T16:41:42.583Z,43.30
2018-11-21T16:44:22.660Z,46.93
2018-11-21T16:47:09.950Z,50.57
2018-11-21T16:49:57.106Z,47.23
2018-11-21T16:52:37.738Z,50.87
2018-11-21T16:55:25.800Z,45.20
2018-11-21T16:58:06.084Z,50.77
2018-11-21T17:00:53.669Z,45.17
2018-11-21T17:03:34.705Z,50.13
2018-11-21T17:06:22.169Z,47.17
2018-11-21T17:09:02.662Z,47.37
2018-11-21T17:11:50.090Z,48.40
2018-11-21T17:14:30.435Z,45.23
2018-11-21T17:17:17.658Z,42.97
2018-11-21T17:19:58.733Z,43.10
2018-11-21T17:22:47.356Z,45.97
2018-11-21T17:25:29.558Z,43.77
2018-11-21T17:28:16.894Z,48.73
2018-11-21T17:30:48.834Z,46.27
2018-11-21T17:33:16.460Z,46.90
2018-11-21T17:35:44.056Z,45.27
2018-11-21T17:38:11.718Z,46.73
2018-11-21T17:40:41.046Z,42.63
2018-11-21T17:43:08.661Z,44.80
2018-11-21T17:45:36.218Z,46.47
2018-11-21T17:48:03.888Z,45.63
2018-11-21T17:50:31.593Z,48.43
2018-11-21T17:53:00.798Z,42.90
2018-11-21T17:55:31.394Z,44.30
2018-11-21T17:57:59.095Z,46.37
2018-11-21T18:00:30.457Z,44.97
2018-11-21T18:02:58.228Z,42.17
2018-11-21T18:05:30.787Z,43.67
2018-11-21T18:07:58.315Z,41.23
2018-11-21T18:10:29.832Z,37.70
2018-11-21T18:12:57.450Z,37.10
2018-11-21T18:15:25.064Z,34.63
2018-11-21T18:17:52.664Z,33.53
2018-11-21T18:20:20.656Z,32.03
2018-11-21T18:22:48.765Z,33.07
2018-11-21T18:25:18.059Z,32.40
2018-11-21T18:27:48.690Z,33.03
2018-11-21T18:30:17.871Z,31.77
2018-11-21T18:32:45.963Z,31.97
2018-11-21T18:35:14.846Z,29.97
2018-11-21T18:37:43.116Z,27.93
2018-11-21T18:40:22.336Z,28.13
2018-11-21T18:42:49.947Z,26.00
2018-11-21T18:45:32.899Z,29.90
2018-11-21T18:48:00.512Z,26.43
2018-11-21T18:50:28.179Z,31.13
2018-11-21T18:52:56.925Z,30.40
2018-11-21T18:55:27.905Z,28.00
2018-11-21T18:58:31.053Z,26.60
2018-11-21T19:00:58.649Z,27.73
2018-11-21T19:03:26.253Z,31.80
2018-11-21T19:05:53.949Z,27.70
2018-11-21T19:08:22.431Z,32.77
2018-11-21T19:10:50.741Z,31.83
2018-11-21T19:13:18.549Z,30.03
2018-11-21T19:15:46.190Z,29.77
2018-11-21T19:18:13.803Z,31.73
2018-11-21T19:20:41.401Z,33.17
2018-11-21T19:23:09.049Z,30.07
2018-11-21T19:25:36.628Z,30.77
2018-11-21T19:28:04.332Z,29.00
2018-11-21T19:30:32.083Z,33.93
2018-11-21T19:33:02.504Z,32.03
2018-11-21T19:35:30.086Z,35.73
2018-11-21T19:37:57.776Z,33.30
2018-11-21T19:40:25.410Z,30.93
2018-11-21T19:42:53.044Z,38.33
2018-11-21T19:45:20.718Z,35.60
2018-11-21T19:47:48.582Z,32.87
2018-11-21T19:50:17.026Z,34.53
2018-11-21T19:52:45.427Z,35.37
2018-11-21T19:55:15.148Z,37.23
2018-11-21T19:57:43.118Z,38.40
2018-11-21T20:00:17.186Z,36.37
2018-11-21T20:02:45.389Z,39.57
2018-11-21T20:05:13.171Z,38.37
2018-11-21T20:07:40.927Z,36.77
2018-11-21T20:10:09.289Z,38.73
2018-11-21T20:12:40.037Z,35.93
2018-11-21T20:15:07.828Z,41.57
2018-11-21T20:17:35.272Z,35.97
2018-11-21T20:20:03.319Z,38.07
2018-11-21T20:22:31.003Z,40.23
2018-11-21T20:25:01.172Z,40.67
2018-11-21T20:27:28.818Z,41.33
2018-11-21T20:29:56.530Z,46.10
2018-11-21T20:32:24.102Z,37.37
2018-11-21T20:34:51.736Z,40.20
2018-11-21T20:37:19.392Z,37.87
2018-11-21T20:39:47.077Z,42.70
2018-11-21T20:42:14.715Z,41.00
2018-11-21T20:44:42.484Z,43.50
2018-11-21T20:47:10.175Z,45.67
2018-11-21T20:49:37.878Z,44.97
2018-11-21T20:52:05.799Z,40.17
2018-11-21T20:54:33.466Z,42.40
2018-11-21T20:57:01.085Z,44.60
2018-11-21T20:59:28.873Z,43.67
2018-11-21T21:01:56.635Z,49.80
2018-11-21T21:04:27.200Z,52.67
2018-11-21T21:06:54.923Z,50.57
2018-11-21T21:09:22.521Z,52.67
2018-11-21T21:11:50.137Z,56.80
2018-11-21T21:14:17.743Z,56.40
2018-11-21T21:16:45.357Z,55.77
2018-11-21T21:19:12.999Z,60.07
2018-11-21T21:21:40.607Z,57.57
2018-11-21T21:24:08.193Z,57.87
2018-11-21T21:26:35.789Z,55.53
2018-11-21T21:29:03.567Z,54.47
2018-11-21T21:31:31.208Z,53.80
2018-11-21T21:33:58.826Z,49.17
2018-11-21T21:36:26.455Z,55.50
2018-11-21T21:38:54.047Z,55.07
2018-11-21T21:41:21.603Z,54.50
2018-11-21T21:43:49.200Z,59.87
2018-11-21T21:46:16.830Z,60.63
2018-11-21T21:48:44.420Z,54.87
2018-11-21T21:51:12.072Z,54.17
2018-11-21T21:53:39.634Z,51.60
2018-11-21T21:56:07.213Z,53.20
2018-11-21T21:58:34.801Z,56.77
2018-11-21T22:01:02.366Z,56.30
2018-11-21T22:03:29.994Z,54.30
2018-11-21T22:05:57.588Z,54.40
2018-11-21T22:08:25.226Z,53.53
2018-11-21T22:10:52.838Z,51.43
2018-11-21T22:13:20.409Z,61.20
2018-11-21T22:15:48.149Z,61.23
2018-11-21T22:18:15.984Z,58.97
2018-11-21T22:20:43.574Z,57.10
2018-11-21T22:23:11.190Z,56.67
2018-11-21T22:25:38.794Z,55.80
2018-11-21T22:28:06.480Z,60.33
2018-11-21T22:30:34.140Z,59.00
2018-11-21T22:33:01.905Z,52.10
2018-11-21T22:35:33.438Z,52.30
2018-11-21T22:38:01.019Z,53.70
2018-11-21T22:40:28.843Z,53.53
2018-11-21T22:42:56.453Z,55.50
2018-11-21T22:45:24.217Z,51.83
2018-11-21T22:47:51.788Z,50.23
2018-11-21T22:50:23.541Z,53.27
2018-11-21T22:52:51.249Z,47.93
2018-11-21T22:55:19.171Z,49.27
2018-11-21T22:57:47.303Z,46.07
2018-11-21T23:00:17.305Z,51.40
2018-11-21T23:02:44.870Z,54.40
2018-11-21T23:05:12.475Z,46.93
2018-11-21T23:07:41.155Z,48.07
2018-11-21T23:10:11.443Z,56.27
2018-11-21T23:12:38.552Z,52.03
2018-11-21T23:15:07.295Z,56.67
2018-11-21T23:17:34.992Z,53.13
2018-11-21T23:20:03.160Z,56.10
2018-11-21T23:22:32.582Z,54.33
2018-11-21T23:24:58.386Z,49.50
2018-11-21T23:27:25.967Z,52.63
2018-11-21T23:29:53.529Z,50.57
2018-11-21T23:32:21.128Z,48.87
2018-11-21T23:34:48.717Z,52.60
2018-11-21T23:37:16.348Z,56.17
2018-11-21T23:39:43.943Z,50.63
2018-11-21T23:42:11.634Z,48.23
2018-11-21T23:44:39.216Z,49.83
2018-11-21T23:47:06.808Z,51.30
2018-11-21T23:49:34.396Z,52.37
2018-11-21T23:52:04.706Z,51.40
2018-11-21T23:54:32.478Z,49.60
2018-11-21T23:57:15.887Z,48.73
2018-11-21T23:59:27.738Z,51.37
